Time,TemperatureF,DewpointF,PressureIn,WindDirection,WindDirectionDegrees,WindSpeedMPH,WindSpeedGustMPH,Humidity,HourlyPrecipIn,Conditions,Clouds,dailyrainin,SoftwareType,DateUTC
2013-01-30 00:00:00,67.9,48.0,29.76,NNW,332,9.4,22.6,49,0.00,CLR,,0.00,WeatherDisplay:10.37,2013-01-30 06:00:00,
2013-01-30 00:05:00,67.9,48.6,29.76,North,360,12.0,20.7,50,0.00,CLR,,0.00,WeatherDisplay:10.37,2013-01-30 06:05:00,
2013-01-30 00:10:00,67.8,48.5,29.77,NNW,343,11.9,18.4,50,0.00,CLR,,0.00,WeatherDisplay:10.37,2013-01-30 06:10:00,
2013-01-30 00:15:00,67.8,47.9,29.77,North,350,14.0,19.6,49,0.00,CLR,,0.00,WeatherDisplay:10.37,2013-01-30 06:15:00,
2013-01-30 00:20:00,67.7,47.3,29.77,NNW,336,11.6,20.2,48,0.00,CLR,,0.00,WeatherDisplay:10.37,2013-01-30 06:20:00,
2013-01-30 00:25:00,67.7,47.3,29.77,North,350,12.8,18.7,48,0.00,CLR,,0.00,WeatherDisplay:10.37,2013-01-30 06:25:00,
2013-01-30 00:30:00,67.7,46.7,29.77,NNW,329,14.3,23.0,47,0.00,,,0.00,WeatherDisplay:10.37,2013-01-30 06:30:00,
2013-01-30 00:35:00,67.7,46.2,29.78,North,359,16.3,23.2,46,0.00,,,0.00,WeatherDisplay:10.37,2013-01-30 06:35:00,
2013-01-30 00:40:00,67.7,46.2,29.78,NNW,335,12.4,21.1,46,0.00,,,0.00,WeatherDisplay:10.37,2013-01-30 06:40:00,
2013-01-30 00:45:00,67.7,46.2,29.78,NNW,339,16.1,23.7,46,0.00,CLR,,0.00,WeatherDisplay:10.37,2013-01-30 06:45:00,
2013-01-30 00:50:00,67.4,45.9,29.78,North,354,13.4,24.4,46,0.00,,,0.00,WeatherDisplay:10.37,2013-01-30 06:50:00,
2013-01-30 00:55:00,67.4,45.9,29.79,NNW,339,12.0,24.2,46,0.00,,,0.00,WeatherDisplay:10.37,2013-01-30 06:55:00,
2013-01-30 01:00:00,67.4,45.9,29.80,NW,326,12.3,20.7,46,0.00,,,0.00,WeatherDisplay:10.37,2013-01-30 07:00:00,
2013-01-30 01:05:00,67.4,45.3,29.80,NNW,328,15.7,24.3,45,0.00,,,0.00,WeatherDisplay:10.37,2013-01-30 07:05:00,
2013-01-30 01:10:00,67.4,45.3,29.80,NNW,333,16.7,24.2,45,0.00,,,0.00,WeatherDisplay:10.37,2013-01-30 07:10:00,
2013-01-30 01:15:00,67.3,45.2,29.81,NNW,340,13.5,19.6,45,0.00,,,0.00,WeatherDisplay:10.37,2013-01-30 07:15:00,
2013-01-30 01:20:00,67.2,45.1,29.81,NNW,333,14.5,25.1,45,0.00,CLR,,0.00,WeatherDisplay:10.37,2013-01-30 07:20:00,
2013-01-30 01:25:00,67.2,45.7,29.81,North,359,10.7,17.7,46,0.00,CLR,,0.00,WeatherDisplay:10.37,2013-01-30 07:25:00,
2013-01-30 01:30:00,67.1,45.0,29.81,North,7,17.1,28.1,45,0.00,CLR,,0.00,WeatherDisplay:10.37,2013-01-30 07:30:00,
2013-01-30 01:35:00,67.1,45.0,29.82,North,357,14.3,21.9,45,0.00,,,0.00,WeatherDisplay:10.37,2013-01-30 07:35:00,
2013-01-30 01:41:00,67.1,45.0,29.82,North,360,9.4,29.9,45,0.00,,,0.00,WeatherDisplay:10.37,2013-01-30 07:41:00,
2013-01-30 01:46:00,66.9,46.0,29.82,NW,326,6.8,19.8,47,0.00,CLR,,0.00,WeatherDisplay:10.37,2013-01-30 07:46:00,
2013-01-30 01:51:00,66.8,44.8,29.83,NW,306,14.9,23.0,45,0.00,CLR,,0.00,WeatherDisplay:10.37,2013-01-30 07:51:00,
2013-01-30 01:56:00,66.8,44.8,29.82,North,7,16.1,22.1,45,0.00,CLR,,0.00,WeatherDisplay:10.37,2013-01-30 07:56:00,
2013-01-30 02:01:00,66.7,44.1,29.83,NNW,332,15.8,25.3,44,0.00,,,0.00,WeatherDisplay:10.37,2013-01-30 08:01:00,
2013-01-30 02:06:00,66.6,45.2,29.83,NNW,342,12.3,18.4,46,0.00,,,0.00,WeatherDisplay:10.37,2013-01-30 08:06:00,
2013-01-30 02:11:00,66.4,45.0,29.83,NNW,346,12.3,18.6,46,0.00,,,0.00,WeatherDisplay:10.37,2013-01-30 08:11:00,
2013-01-30 02:16:00,66.3,45.5,29.83,North,359,13.8,23.0,47,0.00,CLR,,0.00,WeatherDisplay:10.37,2013-01-30 08:16:00,
2013-01-30 02:21:00,66.2,45.4,29.84,North,354,12.5,17.3,47,0.00,CLR,,0.00,WeatherDisplay:10.37,2013-01-30 08:21:00,
2013-01-30 02:26:00,66.1,44.7,29.84,North,350,11.3,22.8,46,0.00,CLR,,0.00,WeatherDisplay:10.37,2013-01-30 08:26:00,
2013-01-30 02:31:00,66.0,44.6,29.84,NNW,337,11.7,22.8,46,0.00,CLR,,0.00,WeatherDisplay:10.37,2013-01-30 08:31:00,
2013-01-30 02:36:00,65.9,43.9,29.84,North,3,12.7,24.2,45,0.00,,,0.00,WeatherDisplay:10.37,2013-01-30 08:36:00,
2013-01-30 02:41:00,65.8,44.4,29.85,NNW,346,11.7,20.7,46,0.00,,,0.00,WeatherDisplay:10.37,2013-01-30 08:41:00,
2013-01-30 02:46:00,65.7,44.3,29.85,North,357,13.2,23.0,46,0.00,,,0.00,WeatherDisplay:10.37,2013-01-30 08:46:00,
2013-01-30 02:51:00,65.6,45.4,29.85,NW,319,9.9,17.7,48,0.00,CLR,,0.00,WeatherDisplay:10.37,2013-01-30 08:51:00,
2013-01-30 02:56:00,65.4,46.3,29.86,NNW,329,11.0,13.8,50,0.00,CLR,,0.00,WeatherDisplay:10.37,2013-01-30 08:56:00,
2013-01-30 03:01:00,65.1,45.5,29.86,NNW,332,15.3,27.4,49,0.00,,,0.00,WeatherDisplay:10.37,2013-01-30 09:01:00,
2013-01-30 03:06:00,64.9,44.2,29.86,NW,316,14.5,24.2,47,0.00,,,0.00,WeatherDisplay:10.37,2013-01-30 09:06:00,
2013-01-30 03:11:00,64.7,43.4,29.87,NW,323,16.1,27.6,46,0.00,,,0.00,WeatherDisplay:10.37,2013-01-30 09:11:00,
2013-01-30 03:16:00,64.5,43.8,29.87,NNW,336,14.9,23.7,47,0.00,CLR,,0.00,WeatherDisplay:10.37,2013-01-30 09:16:00,
2013-01-30 03:21:00,64.4,44.3,29.87,NW,323,14.3,24.6,48,0.00,CLR,,0.00,WeatherDisplay:10.37,2013-01-30 09:21:00,
2013-01-30 03:26:00,64.2,43.5,29.87,NW,311,11.1,20.7,47,0.00,CLR,,0.00,WeatherDisplay:10.37,2013-01-30 09:26:00,
2013-01-30 03:31:00,64.0,42.8,29.87,North,0,10.2,23.2,46,0.00,CLR,,0.00,WeatherDisplay:10.37,2013-01-30 09:31:00,
2013-01-30 03:36:00,63.9,41.5,29.88,NNW,347,12.2,20.7,44,0.00,CLR,,0.00,WeatherDisplay:10.37,2013-01-30 09:36:00,
2013-01-30 03:41:00,63.9,40.3,29.88,NW,316,11.6,20.7,42,0.00,CLR,,0.00,WeatherDisplay:10.37,2013-01-30 09:41:00,
2013-01-30 03:46:00,63.8,39.6,29.88,NNW,347,11.7,20.7,41,0.00,CLR,,0.00,WeatherDisplay:10.37,2013-01-30 09:46:00,
2013-01-30 03:51:00,63.6,39.5,29.88,NNW,339,8.9,13.9,41,0.00,CLR,,0.00,WeatherDisplay:10.37,2013-01-30 09:51:00,
2013-01-30 03:56:00,63.4,38.6,29.88,NW,318,9.5,16.1,40,0.00,CLR,,0.00,WeatherDisplay:10.37,2013-01-30 09:56:00,
2013-01-30 04:01:00,63.2,39.1,29.88,NNW,333,7.1,13.8,41,0.00,CLR,,0.00,WeatherDisplay:10.37,2013-01-30 10:01:00,
2013-01-30 04:06:00,63.0,38.9,29.88,NW,319,10.5,20.7,41,0.00,CLR,,0.00,WeatherDisplay:10.37,2013-01-30 10:06:00,
2013-01-30 04:11:00,62.9,38.8,29.89,NNW,328,11.4,22.1,41,0.00,CLR,,0.00,WeatherDisplay:10.37,2013-01-30 10:11:00,
2013-01-30 04:16:00,62.8,38.1,29.89,NW,322,12.7,21.9,40,0.00,CLR,,0.00,WeatherDisplay:10.37,2013-01-30 10:16:00,
2013-01-30 04:21:00,62.8,38.7,29.89,WNW,292,9.8,17.3,41,0.00,CLR,,0.00,WeatherDisplay:10.37,2013-01-30 10:21:00,
2013-01-30 04:26:00,62.6,37.3,29.89,NW,311,11.3,16.1,39,0.00,CLR,,0.00,WeatherDisplay:10.37,2013-01-30 10:26:00,
2013-01-30 04:31:00,62.6,37.9,29.90,NNW,337,10.5,17.3,40,0.00,CLR,,0.00,WeatherDisplay:10.37,2013-01-30 10:31:00,
2013-01-30 04:36:00,62.5,37.2,29.90,NW,326,15.7,26.5,39,0.00,CLR,,0.00,WeatherDisplay:10.37,2013-01-30 10:36:00,
2013-01-30 04:41:00,62.3,36.4,29.91,NNW,332,13.0,26.5,38,0.00,CLR,,0.00,WeatherDisplay:10.37,2013-01-30 10:41:00,
2013-01-30 04:47:00,62.2,37.6,29.91,NW,318,11.1,20.7,40,0.00,CLR,,0.00,WeatherDisplay:10.37,2013-01-30 10:47:00,
2013-01-30 04:51:00,62.1,35.5,29.91,NNW,328,14.2,21.9,37,0.00,CLR,,0.00,WeatherDisplay:10.37,2013-01-30 10:51:00,
2013-01-30 04:57:00,62.0,35.4,29.92,North,350,10.1,15.0,37,0.00,CLR,,0.00,WeatherDisplay:10.37,2013-01-30 10:57:00,
2013-01-30 05:02:00,62.0,33.3,29.92,NW,318,13.6,23.0,34,0.00,,,0.00,WeatherDisplay:10.37,2013-01-30 11:02:00,
2013-01-30 05:07:00,61.9,33.2,29.92,WNW,288,10.2,18.4,34,0.00,,,0.00,WeatherDisplay:10.37,2013-01-30 11:07:00,
2013-01-30 05:12:00,61.8,32.4,29.92,WNW,296,11.4,24.2,33,0.00,,,0.00,WeatherDisplay:10.37,2013-01-30 11:12:00,
2013-01-30 05:17:00,61.7,31.5,29.93,WNW,299,15.7,20.7,32,0.00,CLR,,0.00,WeatherDisplay:10.37,2013-01-30 11:17:00,
2013-01-30 05:22:00,61.6,31.4,29.93,WNW,302,11.8,24.6,32,0.00,CLR,,0.00,WeatherDisplay:10.37,2013-01-30 11:22:00,
2013-01-30 05:27:00,61.5,29.7,29.93,NW,315,13.1,26.5,30,0.00,,,0.00,WeatherDisplay:10.37,2013-01-30 11:27:00,
2013-01-30 05:32:00,61.4,28.8,29.93,WNW,285,15.8,26.5,29,0.00,,,0.00,WeatherDisplay:10.37,2013-01-30 11:32:00,
2013-01-30 05:37:00,61.2,27.8,29.93,WNW,291,17.1,24.7,28,0.00,,,0.00,WeatherDisplay:10.37,2013-01-30 11:37:00,
2013-01-30 05:42:00,61.0,29.3,29.94,NNW,335,10.3,24.7,30,0.00,CLR,,0.00,WeatherDisplay:10.37,2013-01-30 11:42:00,
2013-01-30 05:47:00,60.8,28.3,29.94,WNW,287,11.3,29.8,29,0.00,CLR,,0.00,WeatherDisplay:10.37,2013-01-30 11:47:00,
2013-01-30 05:52:00,60.5,28.1,29.94,NW,304,10.9,21.9,29,0.00,CLR,,0.00,WeatherDisplay:10.37,2013-01-30 11:52:00,
2013-01-30 05:57:00,60.3,28.7,29.94,WNW,301,12.0,26.2,30,0.00,CLR,,0.00,WeatherDisplay:10.37,2013-01-30 11:57:00,
2013-01-30 06:02:00,60.0,28.4,29.95,WNW,299,13.0,18.4,30,0.00,CLR,,0.00,WeatherDisplay:10.37,2013-01-30 12:02:00,
2013-01-30 06:07:00,59.7,28.2,29.95,WNW,296,10.8,20.7,30,0.00,CLR,,0.00,WeatherDisplay:10.37,2013-01-30 12:07:00,
2013-01-30 06:12:00,59.5,28.8,29.96,WNW,288,9.8,17.3,31,0.00,CLR,,0.00,WeatherDisplay:10.37,2013-01-30 12:12:00,
2013-01-30 06:17:00,59.3,28.6,29.97,WNW,298,11.5,16.7,31,0.00,CLR,,0.00,WeatherDisplay:10.37,2013-01-30 12:17:00,
2013-01-30 06:22:00,59.1,28.5,29.98,WNW,295,11.6,20.7,31,0.00,CLR,,0.00,WeatherDisplay:10.37,2013-01-30 12:22:00,
2013-01-30 06:27:00,59.0,28.4,29.98,West,275,13.0,19.6,31,0.00,CLR,,0.00,WeatherDisplay:10.37,2013-01-30 12:27:00,
2013-01-30 06:32:00,58.9,28.3,29.99,NW,304,13.4,21.9,31,0.00,CLR,,0.00,WeatherDisplay:10.37,2013-01-30 12:32:00,
2013-01-30 06:37:00,58.8,29.0,29.99,WNW,291,11.3,18.7,32,0.00,CLR,,0.00,WeatherDisplay:10.37,2013-01-30 12:37:00,
2013-01-30 06:42:00,58.6,28.8,29.99,North,0,8.5,16.1,32,0.00,CLR,,0.00,WeatherDisplay:10.37,2013-01-30 12:42:00,
2013-01-30 06:47:00,58.4,28.6,29.99,NW,319,8.9,18.4,32,0.00,CLR,,0.00,WeatherDisplay:10.37,2013-01-30 12:47:00,
2013-01-30 06:52:00,58.1,29.1,30.00,WNW,288,9.2,17.3,33,0.00,CLR,,0.00,WeatherDisplay:10.37,2013-01-30 12:52:00,
2013-01-30 06:57:00,57.9,29.7,30.00,NW,318,8.0,13.8,34,0.00,CLR,,0.00,WeatherDisplay:10.37,2013-01-30 12:57:00,
2013-01-30 07:02:00,57.7,28.8,30.01,NW,312,11.2,16.1,33,0.00,CLR,,0.00,WeatherDisplay:10.37,2013-01-30 13:02:00,
2013-01-30 07:08:00,57.5,29.3,30.02,NW,304,8.8,16.1,34,0.00,CLR,,0.00,WeatherDisplay:10.37,2013-01-30 13:08:00,
2013-01-30 07:13:00,57.3,29.1,30.02,WNW,295,9.9,16.1,34,0.00,CLR,,0.00,WeatherDisplay:10.37,2013-01-30 13:13:00,
2013-01-30 07:18:00,57.2,29.1,30.02,NNW,344,9.9,13.8,34,0.00,CLR,,0.00,WeatherDisplay:10.37,2013-01-30 13:18:00,
2013-01-30 07:23:00,57.2,29.8,30.02,NW,316,9.4,19.2,35,0.00,CLR,,0.00,WeatherDisplay:10.37,2013-01-30 13:23:00,
2013-01-30 07:28:00,57.0,28.9,30.02,WNW,298,10.2,17.3,34,0.00,CLR,,0.00,WeatherDisplay:10.37,2013-01-30 13:28:00,
2013-01-30 07:33:00,57.0,28.9,30.03,NNW,337,9.5,16.1,34,0.00,CLR,,0.00,WeatherDisplay:10.37,2013-01-30 13:33:00,
2013-01-30 07:38:00,56.9,29.5,30.03,NW,326,10.2,19.8,35,0.00,CLR,,0.00,WeatherDisplay:10.37,2013-01-30 13:38:00,
2013-01-30 07:43:00,56.7,29.3,30.03,West,277,9.1,18.4,35,0.00,CLR,,0.00,WeatherDisplay:10.37,2013-01-30 13:43:00,
2013-01-30 07:48:00,56.8,29.4,30.03,NW,311,7.6,17.3,35,0.00,CLR,,0.00,WeatherDisplay:10.37,2013-01-30 13:48:00,
2013-01-30 07:53:00,56.7,28.6,30.04,WNW,299,9.3,14.2,34,0.00,CLR,,0.00,WeatherDisplay:10.37,2013-01-30 13:53:00,
2013-01-30 07:58:00,56.7,29.3,30.04,WNW,294,7.7,11.5,35,0.00,CLR,,0.00,WeatherDisplay:10.37,2013-01-30 13:58:00,
2013-01-30 08:03:00,56.8,29.4,30.04,NW,305,10.7,15.0,35,0.00,CLR,,0.00,WeatherDisplay:10.37,2013-01-30 14:03:00,
2013-01-30 08:08:00,56.8,29.4,30.04,NW,312,10.1,15.0,35,0.00,CLR,,0.00,WeatherDisplay:10.37,2013-01-30 14:08:00,
2013-01-30 08:13:00,56.8,29.4,30.04,NW,311,10.5,15.0,35,0.00,CLR,,0.00,WeatherDisplay:10.37,2013-01-30 14:13:00,
2013-01-30 08:18:00,57.1,30.4,30.05,WNW,288,7.0,16.1,36,0.00,CLR,,0.00,WeatherDisplay:10.37,2013-01-30 14:18:00,
2013-01-30 08:23:00,57.2,29.1,30.05,WNW,295,12.8,20.0,34,0.00,CLR,,0.00,WeatherDisplay:10.37,2013-01-30 14:23:00,
2013-01-30 08:28:00,57.4,30.6,30.06,WNW,284,9.0,15.0,36,0.00,CLR,,0.00,WeatherDisplay:10.37,2013-01-30 14:28:00,
2013-01-30 08:33:00,57.6,30.1,30.06,NW,305,12.4,20.7,35,0.00,CLR,,0.00,WeatherDisplay:10.37,2013-01-30 14:33:00,
2013-01-30 08:38:00,57.6,28.7,30.06,WNW,295,15.7,21.8,33,0.00,CLR,,0.00,WeatherDisplay:10.37,2013-01-30 14:38:00,
2013-01-30 08:43:00,57.7,28.8,30.06,NNW,329,11.8,23.8,33,0.00,CLR,,0.00,WeatherDisplay:10.37,2013-01-30 14:43:00,
2013-01-30 08:48:00,58.0,28.3,30.06,NW,313,14.6,27.3,32,0.00,CLR,,0.00,WeatherDisplay:10.37,2013-01-30 14:48:00,
2013-01-30 08:53:00,58.3,27.8,30.07,NNW,330,15.5,23.2,31,0.00,CLR,,0.00,WeatherDisplay:10.37,2013-01-30 14:53:00,
2013-01-30 08:58:00,58.7,26.5,30.07,WNW,299,19.3,29.0,29,0.00,,,0.00,WeatherDisplay:10.37,2013-01-30 14:58:00,
2013-01-30 09:03:00,59.0,26.8,30.07,WNW,291,20.4,36.8,29,0.00,,,0.00,WeatherDisplay:10.37,2013-01-30 15:03:00,
2013-01-30 09:08:00,59.2,26.9,30.08,WNW,298,16.2,24.2,29,0.00,,,0.00,WeatherDisplay:10.37,2013-01-30 15:08:00,
2013-01-30 09:13:00,59.2,26.1,30.09,NW,312,19.2,35.2,28,0.00,,,0.00,WeatherDisplay:10.37,2013-01-30 15:13:00,
2013-01-30 09:18:00,59.5,27.2,30.09,NW,319,16.0,28.9,29,0.00,,,0.00,WeatherDisplay:10.37,2013-01-30 15:18:00,
2013-01-30 09:23:00,59.5,27.2,30.09,NW,320,16.8,35.7,29,0.00,,,0.00,WeatherDisplay:10.37,2013-01-30 15:23:00,
2013-01-30 09:28:00,59.5,26.3,30.09,WNW,294,16.4,34.5,28,0.00,,,0.00,WeatherDisplay:10.37,2013-01-30 15:28:00,
2013-01-30 09:33:00,59.5,27.2,30.10,NW,308,15.3,33.4,29,0.00,,,0.00,WeatherDisplay:10.37,2013-01-30 15:33:00,
2013-01-30 09:38:00,59.8,25.7,30.10,West,280,16.2,31.1,27,0.00,,,0.00,WeatherDisplay:10.37,2013-01-30 15:38:00,
2013-01-30 09:43:00,59.8,25.7,30.10,WNW,299,17.9,36.8,27,0.00,,,0.00,WeatherDisplay:10.37,2013-01-30 15:43:00,
2013-01-30 09:48:00,60.2,26.9,30.11,North,350,14.5,36.8,28,0.00,,,0.00,WeatherDisplay:10.37,2013-01-30 15:48:00,
2013-01-30 09:53:00,60.4,26.2,30.11,WNW,296,17.1,32.2,27,0.00,,,0.00,WeatherDisplay:10.37,2013-01-30 15:53:00,
2013-01-30 09:58:00,60.5,27.2,30.11,West,274,14.8,19.6,28,0.00,,,0.00,WeatherDisplay:10.37,2013-01-30 15:58:00,
2013-01-30 10:03:00,60.6,26.4,30.11,NW,315,20.3,33.0,27,0.00,,,0.00,WeatherDisplay:10.37,2013-01-30 16:03:00,
2013-01-30 10:08:00,60.5,25.4,30.11,West,278,15.7,35.7,26,0.00,,,0.00,WeatherDisplay:10.37,2013-01-30 16:08:00,
2013-01-30 10:13:00,60.4,24.4,30.11,NW,320,20.0,37.2,25,0.00,,,0.00,WeatherDisplay:10.37,2013-01-30 16:13:00,
2013-01-30 10:18:00,60.8,24.7,30.11,WNW,299,13.3,32.2,25,0.00,,,0.00,WeatherDisplay:10.37,2013-01-30 16:18:00,
2013-01-30 10:23:00,61.3,26.1,30.12,NNW,329,8.0,25.3,26,0.00,,,0.00,WeatherDisplay:10.37,2013-01-30 16:23:00,
2013-01-30 10:28:00,61.7,24.5,30.11,NW,316,16.4,33.1,24,0.00,CLR,,0.00,WeatherDisplay:10.37,2013-01-30 16:28:00,
2013-01-30 10:33:00,61.6,24.4,30.11,WNW,285,19.4,27.6,24,0.00,,,0.00,WeatherDisplay:10.37,2013-01-30 16:33:00,
2013-01-30 10:38:00,61.7,24.5,30.12,NNW,329,17.0,32.2,24,0.00,,,0.00,WeatherDisplay:10.37,2013-01-30 16:38:00,
2013-01-30 10:43:00,61.9,23.6,30.12,NW,309,16.7,31.6,23,0.00,,,0.00,WeatherDisplay:10.37,2013-01-30 16:43:00,
2013-01-30 10:48:00,61.7,24.5,30.12,WNW,295,17.4,31.1,24,0.00,,,0.00,WeatherDisplay:10.37,2013-01-30 16:48:00,
2013-01-30 10:53:00,61.8,23.6,30.12,West,280,14.0,32.8,23,0.00,,,0.00,WeatherDisplay:10.37,2013-01-30 16:53:00,
2013-01-30 10:58:00,62.0,24.8,30.12,NNW,328,18.0,32.8,24,0.00,,,0.00,WeatherDisplay:10.37,2013-01-30 16:58:00,
2013-01-30 11:03:00,61.9,23.6,30.12,WNW,284,20.0,33.4,23,0.00,,,0.00,WeatherDisplay:10.37,2013-01-30 17:03:00,
2013-01-30 11:09:00,62.0,23.7,30.12,NW,305,18.9,38.9,23,0.00,,,0.00,WeatherDisplay:10.37,2013-01-30 17:09:00,
2013-01-30 11:14:00,62.2,23.9,30.13,West,281,19.4,29.9,23,0.00,,,0.00,WeatherDisplay:10.37,2013-01-30 17:14:00,
2013-01-30 11:19:00,62.2,23.9,30.12,NW,315,20.4,29.8,23,0.00,,,0.00,WeatherDisplay:10.37,2013-01-30 17:19:00,
2013-01-30 11:24:00,62.5,24.2,30.12,NW,312,15.9,34.5,23,0.00,,,0.00,WeatherDisplay:10.37,2013-01-30 17:24:00,
2013-01-30 11:29:00,62.5,25.2,30.12,WNW,284,17.0,27.6,24,0.00,,,0.00,WeatherDisplay:10.37,2013-01-30 17:29:00,
2013-01-30 11:34:00,62.5,26.2,30.13,WNW,285,13.3,28.8,25,0.00,,,0.00,WeatherDisplay:10.37,2013-01-30 17:34:00,
2013-01-30 11:39:00,62.7,25.3,30.13,NNW,339,15.3,23.0,24,0.00,,,0.00,WeatherDisplay:10.37,2013-01-30 17:39:00,
2013-01-30 11:44:00,62.8,24.4,30.13,WNW,285,17.2,32.2,23,0.00,,,0.00,WeatherDisplay:10.37,2013-01-30 17:44:00,
2013-01-30 11:49:00,63.0,25.6,30.12,WNW,296,10.7,28.8,24,0.00,,,0.00,WeatherDisplay:10.37,2013-01-30 17:49:00,
2013-01-30 11:54:00,63.0,24.6,30.12,NW,305,15.3,32.2,23,0.00,,,0.00,WeatherDisplay:10.37,2013-01-30 17:54:00,
2013-01-30 11:59:00,63.3,25.9,30.12,NW,319,13.8,23.0,24,0.00,CLR,,0.00,WeatherDisplay:10.37,2013-01-30 17:59:00,
2013-01-30 12:04:00,63.2,24.7,30.12,WNW,291,18.9,34.5,23,0.00,,,0.00,WeatherDisplay:10.37,2013-01-30 18:04:00,
2013-01-30 12:09:00,63.1,23.6,30.12,WNW,285,19.3,32.2,22,0.00,,,0.00,WeatherDisplay:10.37,2013-01-30 18:09:00,
2013-01-30 12:14:00,63.4,24.9,30.11,WNW,288,16.6,32.2,23,0.00,,,0.00,WeatherDisplay:10.37,2013-01-30 18:14:00,
2013-01-30 12:19:00,63.6,25.1,30.11,NW,320,16.7,32.2,23,0.00,,,0.00,WeatherDisplay:10.37,2013-01-30 18:19:00,
2013-01-30 12:24:00,63.4,24.9,30.11,NW,323,19.8,31.8,23,0.00,,,0.00,WeatherDisplay:10.37,2013-01-30 18:24:00,
2013-01-30 12:29:00,63.2,23.7,30.11,NW,308,20.8,34.5,22,0.00,,,0.00,WeatherDisplay:10.37,2013-01-30 18:29:00,
2013-01-30 12:34:00,63.2,23.7,30.11,WNW,285,19.1,31.7,22,0.00,,,0.00,WeatherDisplay:10.37,2013-01-30 18:34:00,
2013-01-30 12:39:00,63.1,23.6,30.11,WNW,289,16.6,33.4,22,0.00,,,0.00,WeatherDisplay:10.37,2013-01-30 18:39:00,
2013-01-30 12:44:00,63.3,23.8,30.10,West,280,18.2,30.0,22,0.00,,,0.00,WeatherDisplay:10.37,2013-01-30 18:44:00,
2013-01-30 12:49:00,63.4,23.8,30.10,NW,318,14.9,30.6,22,0.00,CLR,,0.00,WeatherDisplay:10.37,2013-01-30 18:49:00,
2013-01-30 12:54:00,63.5,22.8,30.10,West,278,21.9,31.5,21,0.00,,,0.00,WeatherDisplay:10.37,2013-01-30 18:54:00,
2013-01-30 12:59:00,63.6,24.0,30.10,WNW,294,20.2,32.8,22,0.00,,,0.00,WeatherDisplay:10.37,2013-01-30 18:59:00,
2013-01-30 13:04:00,64.0,25.4,30.10,NW,306,11.3,24.5,23,0.00,,,0.00,WeatherDisplay:10.37,2013-01-30 19:04:00,
2013-01-30 13:09:00,64.3,22.3,30.10,NW,323,15.5,26.5,20,0.00,,,0.00,WeatherDisplay:10.37,2013-01-30 19:09:00,
2013-01-30 13:14:00,64.3,23.5,30.09,NW,312,15.4,28.8,21,0.00,,,0.00,WeatherDisplay:10.37,2013-01-30 19:14:00,
2013-01-30 13:19:00,64.8,23.9,30.09,NW,325,12.2,28.8,21,0.00,,,0.00,WeatherDisplay:10.37,2013-01-30 19:19:00,
2013-01-30 13:24:00,64.8,23.9,30.09,WNW,288,14.8,31.3,21,0.00,,,0.00,WeatherDisplay:10.37,2013-01-30 19:24:00,
2013-01-30 13:29:00,64.7,20.2,30.09,WSW,239,20.2,27.6,18,0.00,,,0.00,WeatherDisplay:10.37,2013-01-30 19:29:00,
2013-01-30 13:34:00,64.8,22.7,30.09,NW,319,15.4,25.3,20,0.00,,,0.00,WeatherDisplay:10.37,2013-01-30 19:34:00,
2013-01-30 13:39:00,64.7,23.8,30.08,West,274,14.0,20.8,21,0.00,CLR,,0.00,WeatherDisplay:10.37,2013-01-30 19:39:00,
2013-01-30 13:44:00,64.8,23.9,30.08,NW,309,13.9,21.9,21,0.00,,,0.00,WeatherDisplay:10.37,2013-01-30 19:44:00,
2013-01-30 13:49:00,64.8,21.5,30.08,NW,306,20.1,33.9,19,0.00,,,0.00,WeatherDisplay:10.37,2013-01-30 19:49:00,
2013-01-30 13:55:00,64.4,21.2,30.08,WNW,288,18.2,36.1,19,0.00,,,0.00,WeatherDisplay:10.37,2013-01-30 19:55:00,
2013-01-30 14:00:00,64.2,22.2,30.08,WNW,284,23.3,31.1,20,0.00,,,0.00,WeatherDisplay:10.37,2013-01-30 20:00:00,
2013-01-30 14:05:00,64.2,23.4,30.08,WNW,287,21.3,33.4,21,0.00,,,0.00,WeatherDisplay:10.37,2013-01-30 20:05:00,
2013-01-30 14:10:00,64.3,23.5,30.08,NW,312,19.2,33.4,21,0.00,,,0.00,WeatherDisplay:10.37,2013-01-30 20:10:00,
2013-01-30 14:15:00,64.3,24.6,30.08,NW,322,16.3,27.0,22,0.00,,,0.00,WeatherDisplay:10.37,2013-01-30 20:15:00,
2013-01-30 14:20:00,64.3,25.7,30.08,WNW,292,13.4,23.0,23,0.00,,,0.00,WeatherDisplay:10.37,2013-01-30 20:20:00,
2013-01-30 14:25:00,64.3,24.6,30.08,NW,306,22.6,33.0,22,0.00,,,0.00,WeatherDisplay:10.37,2013-01-30 20:25:00,
2013-01-30 14:30:00,64.5,25.8,30.08,NW,322,14.4,24.6,23,0.00,CLR,,0.00,WeatherDisplay:10.37,2013-01-30 20:30:00,
2013-01-30 14:35:00,64.6,25.9,30.08,NW,315,14.4,27.0,23,0.00,,,0.00,WeatherDisplay:10.37,2013-01-30 20:35:00,
2013-01-30 14:40:00,64.8,28.1,30.08,WNW,299,14.8,28.4,25,0.00,,,0.00,WeatherDisplay:10.37,2013-01-30 20:40:00,
2013-01-30 14:45:00,65.1,27.4,30.07,West,275,13.7,19.6,24,0.00,,,0.00,WeatherDisplay:10.37,2013-01-30 20:45:00,
2013-01-30 14:50:00,65.6,25.7,30.07,West,274,10.4,19.6,22,0.00,CLR,,0.00,WeatherDisplay:10.37,2013-01-30 20:50:00,
2013-01-30 14:55:00,65.9,24.8,30.07,NW,318,15.9,24.2,21,0.00,,,0.00,WeatherDisplay:10.37,2013-01-30 20:55:00,
2013-01-30 15:00:00,66.4,25.2,30.07,NNW,330,9.2,21.9,21,0.00,,,0.00,WeatherDisplay:10.37,2013-01-30 21:00:00,
2013-01-30 15:05:00,66.8,19.1,30.06,WNW,295,16.4,30.2,16,0.00,,,0.00,WeatherDisplay:10.37,2013-01-30 21:05:00,
2013-01-30 15:10:00,66.8,19.1,30.07,NW,315,16.3,33.4,16,0.00,,,0.00,WeatherDisplay:10.37,2013-01-30 21:10:00,
2013-01-30 15:15:00,66.8,17.6,30.07,NW,315,19.1,36.8,15,0.00,,,0.00,WeatherDisplay:10.37,2013-01-30 21:15:00,
2013-01-30 15:20:00,66.6,19.0,30.07,WNW,295,19.1,29.5,16,0.00,,,0.00,WeatherDisplay:10.37,2013-01-30 21:20:00,
2013-01-30 15:25:00,66.3,18.7,30.07,NW,325,17.0,26.5,16,0.00,,,0.00,WeatherDisplay:10.37,2013-01-30 21:25:00,
2013-01-30 15:30:00,66.6,19.0,30.06,NW,312,19.9,34.6,16,0.00,,,0.00,WeatherDisplay:10.37,2013-01-30 21:30:00,
2013-01-30 15:35:00,66.6,19.0,30.06,NW,326,19.3,29.9,16,0.00,,,0.00,WeatherDisplay:10.37,2013-01-30 21:35:00,
2013-01-30 15:40:00,66.8,19.1,30.07,WNW,295,21.5,34.6,16,0.00,,,0.00,WeatherDisplay:10.37,2013-01-30 21:40:00,
2013-01-30 15:45:00,66.6,19.0,30.07,NW,309,16.7,34.6,16,0.00,,,0.00,WeatherDisplay:10.37,2013-01-30 21:45:00,
2013-01-30 15:50:00,66.8,17.6,30.07,WNW,301,15.1,34.6,15,0.00,,,0.00,WeatherDisplay:10.37,2013-01-30 21:50:00,
2013-01-30 15:55:00,66.8,16.0,30.07,NW,326,19.7,31.1,14,0.00,,,0.00,WeatherDisplay:10.37,2013-01-30 21:55:00,
2013-01-30 16:00:00,66.6,17.4,30.07,WNW,302,19.8,26.5,15,0.00,,,0.00,WeatherDisplay:10.37,2013-01-30 22:00:00,
2013-01-30 16:05:00,66.7,19.0,30.08,NNW,328,14.9,25.3,16,0.00,,,0.00,WeatherDisplay:10.37,2013-01-30 22:05:00,
2013-01-30 16:10:00,66.4,18.8,30.08,West,270,14.6,28.4,16,0.00,CLR,,0.00,WeatherDisplay:10.37,2013-01-30 22:10:00,
2013-01-30 16:15:00,66.4,18.8,30.07,NW,313,15.2,24.6,16,0.00,CLR,,0.00,WeatherDisplay:10.37,2013-01-30 22:15:00,
2013-01-30 16:20:00,66.3,17.2,30.08,NW,308,15.1,29.9,15,0.00,,,0.00,WeatherDisplay:10.37,2013-01-30 22:20:00,
2013-01-30 16:25:00,66.0,18.5,30.08,NW,316,14.6,22.6,16,0.00,,,0.00,WeatherDisplay:10.37,2013-01-30 22:25:00,
2013-01-30 16:30:00,65.6,16.6,30.08,NNW,340,16.0,27.4,15,0.00,,,0.00,WeatherDisplay:10.37,2013-01-30 22:30:00,
2013-01-30 16:35:00,65.3,16.4,30.09,NW,318,19.4,28.8,15,0.00,,,0.00,WeatherDisplay:10.37,2013-01-30 22:35:00,
2013-01-30 16:40:00,65.3,20.7,30.09,WNW,284,11.3,21.9,18,0.00,,,0.00,WeatherDisplay:10.37,2013-01-30 22:40:00,
2013-01-30 16:45:00,65.0,17.7,30.10,NW,326,14.7,35.2,16,0.00,,,0.00,WeatherDisplay:10.37,2013-01-30 22:45:00,
2013-01-30 16:50:00,64.8,18.9,30.10,NW,319,16.2,25.9,17,0.00,,,0.00,WeatherDisplay:10.37,2013-01-30 22:50:00,
2013-01-30 16:55:00,64.6,17.3,30.10,WNW,299,20.4,31.1,16,0.00,,,0.00,WeatherDisplay:10.37,2013-01-30 22:55:00,
2013-01-30 17:00:00,64.4,18.6,30.11,NW,320,15.6,29.9,17,0.00,,,0.00,WeatherDisplay:10.37,2013-01-30 23:00:00,
2013-01-30 17:05:00,64.2,18.4,30.11,WNW,292,16.2,28.7,17,0.00,,,0.00,WeatherDisplay:10.37,2013-01-30 23:05:00,
2013-01-30 17:10:00,64.0,18.3,30.11,WNW,294,15.9,29.5,17,0.00,,,0.00,WeatherDisplay:10.37,2013-01-30 23:10:00,
2013-01-30 17:15:00,63.9,18.2,30.11,NW,306,17.5,27.6,17,0.00,,,0.00,WeatherDisplay:10.37,2013-01-30 23:15:00,
2013-01-30 17:20:00,63.7,20.6,30.12,WNW,292,13.7,27.6,19,0.00,CLR,,0.00,WeatherDisplay:10.37,2013-01-30 23:20:00,
2013-01-30 17:25:00,63.4,19.1,30.12,NW,326,11.9,26.5,18,0.00,,,0.00,WeatherDisplay:10.37,2013-01-30 23:25:00,
2013-01-30 17:30:00,63.3,20.3,30.13,NW,304,15.0,23.4,19,0.00,,,0.00,WeatherDisplay:10.37,2013-01-30 23:30:00,
2013-01-30 17:35:00,62.9,21.2,30.12,WNW,302,13.1,27.6,20,0.00,,,0.00,WeatherDisplay:10.37,2013-01-30 23:35:00,
2013-01-30 17:40:00,62.6,20.9,30.13,NW,322,11.8,27.6,20,0.00,CLR,,0.00,WeatherDisplay:10.37,2013-01-30 23:40:00,
2013-01-30 17:45:00,62.4,19.5,30.13,NW,318,16.2,21.6,19,0.00,CLR,,0.00,WeatherDisplay:10.37,2013-01-30 23:45:00,
2013-01-30 17:50:00,62.1,20.5,30.13,North,360,9.5,13.5,20,0.00,CLR,,0.00,WeatherDisplay:10.37,2013-01-30 23:50:00,
2013-01-30 17:55:00,61.9,21.5,30.13,WNW,282,8.3,13.8,21,0.00,CLR,,0.00,WeatherDisplay:10.37,2013-01-30 23:55:00,
2013-01-30 18:00:00,61.6,20.1,30.13,NNW,335,10.8,17.2,20,0.00,CLR,,0.00,WeatherDisplay:10.37,2013-01-31 00:00:00,
2013-01-30 18:05:00,61.4,22.2,30.13,NNW,340,8.5,13.8,22,0.00,CLR,,0.00,WeatherDisplay:10.37,2013-01-31 00:05:00,
2013-01-30 18:10:00,61.1,21.9,30.13,NW,306,7.7,11.5,22,0.00,CLR,,0.00,WeatherDisplay:10.37,2013-01-31 00:10:00,
2013-01-30 18:15:00,60.7,22.6,30.14,NW,325,8.0,10.4,23,0.00,CLR,,0.00,WeatherDisplay:10.37,2013-01-31 00:15:00,
2013-01-30 18:20:00,60.5,22.5,30.15,NW,304,7.7,10.4,23,0.00,CLR,,0.00,WeatherDisplay:10.37,2013-01-31 00:20:00,
2013-01-30 18:25:00,60.2,23.2,30.15,NW,323,6.4,12.0,24,0.00,CLR,,0.00,WeatherDisplay:10.37,2013-01-31 00:25:00,
2013-01-30 18:30:00,59.9,23.0,30.15,NNW,337,7.3,11.5,24,0.00,CLR,,0.00,WeatherDisplay:10.37,2013-01-31 00:30:00,
2013-01-30 18:35:00,59.6,23.7,30.15,WNW,302,5.8,11.5,25,0.00,CLR,,0.00,WeatherDisplay:10.37,2013-01-31 00:35:00,
2013-01-30 18:40:00,59.5,23.6,30.16,WNW,294,5.7,9.4,25,0.00,CLR,,0.00,WeatherDisplay:10.37,2013-01-31 00:40:00,
2013-01-30 18:45:00,59.2,24.3,30.16,NNW,346,4.8,8.1,26,0.00,CLR,,0.00,WeatherDisplay:10.37,2013-01-31 00:45:00,
2013-01-30 18:50:00,58.8,23.9,30.17,NNW,333,4.9,6.3,26,0.00,CLR,,0.00,WeatherDisplay:10.37,2013-01-31 00:50:00,
2013-01-30 18:55:00,58.4,24.5,30.17,NW,323,3.5,6.0,27,0.00,CLR,,0.00,WeatherDisplay:10.37,2013-01-31 00:55:00,
2013-01-30 19:00:00,58.2,24.3,30.17,NW,305,3.9,5.9,27,0.00,CLR,,0.00,WeatherDisplay:10.37,2013-01-31 01:00:00,
2013-01-30 19:05:00,58.0,25.0,30.18,NW,311,4.1,7.3,28,0.00,CLR,,0.00,WeatherDisplay:10.37,2013-01-31 01:05:00,
2013-01-30 19:10:00,57.9,25.8,30.18,NW,320,3.5,6.3,29,0.00,CLR,,0.00,WeatherDisplay:10.37,2013-01-31 01:10:00,
2013-01-30 19:15:00,57.8,25.7,30.19,NW,308,3.4,5.9,29,0.00,CLR,,0.00,WeatherDisplay:10.37,2013-01-31 01:15:00,
2013-01-30 19:20:00,57.6,24.7,30.19,WNW,295,5.4,7.2,28,0.00,CLR,,0.00,WeatherDisplay:10.37,2013-01-31 01:20:00,
2013-01-30 19:25:00,57.4,25.4,30.18,NW,319,4.4,6.9,29,0.00,CLR,,0.00,WeatherDisplay:10.37,2013-01-31 01:25:00,
2013-01-30 19:30:00,57.2,26.0,30.19,NNW,344,4.4,6.0,30,0.00,CLR,,0.00,WeatherDisplay:10.37,2013-01-31 01:30:00,
2013-01-30 19:35:00,56.8,26.5,30.19,NNW,335,4.3,5.2,31,0.00,CLR,,0.00,WeatherDisplay:10.37,2013-01-31 01:35:00,
2013-01-30 19:40:00,56.4,26.9,30.19,NW,313,3.8,5.8,32,0.00,CLR,,0.00,WeatherDisplay:10.37,2013-01-31 01:40:00,
2013-01-30 19:45:00,56.1,25.1,30.20,WNW,291,3.6,4.6,30,0.00,CLR,,0.00,WeatherDisplay:10.37,2013-01-31 01:45:00,
2013-01-30 19:50:00,56.0,27.3,30.20,NNW,332,4.3,6.9,33,0.00,CLR,,0.00,WeatherDisplay:10.37,2013-01-31 01:50:00,
2013-01-30 19:55:00,55.9,27.9,30.20,NW,323,4.5,5.8,34,0.00,CLR,,0.00,WeatherDisplay:10.37,2013-01-31 01:55:00,
2013-01-30 20:00:00,55.8,28.5,30.21,NNW,335,4.0,5.8,35,0.00,CLR,,0.00,WeatherDisplay:10.37,2013-01-31 02:00:00,
2013-01-30 20:05:00,55.7,29.1,30.21,NNW,329,4.2,6.0,36,0.00,CLR,,0.00,WeatherDisplay:10.37,2013-01-31 02:05:00,
2013-01-30 20:10:00,55.5,29.6,30.21,NNW,336,3.8,4.9,37,0.00,CLR,,0.00,WeatherDisplay:10.37,2013-01-31 02:10:00,
2013-01-30 20:15:00,55.4,30.2,30.21,NNW,342,3.8,5.0,38,0.00,CLR,,0.00,WeatherDisplay:10.37,2013-01-31 02:15:00,
2013-01-30 20:20:00,55.2,30.7,30.22,NW,319,4.4,5.8,39,0.00,CLR,,0.00,WeatherDisplay:10.37,2013-01-31 02:20:00,
2013-01-30 20:25:00,55.1,30.6,30.22,NNW,340,4.3,5.8,39,0.00,CLR,,0.00,WeatherDisplay:10.37,2013-01-31 02:25:00,
2013-01-30 20:30:00,55.0,30.5,30.22,NNW,343,5.1,6.9,39,0.00,CLR,,0.00,WeatherDisplay:10.37,2013-01-31 02:30:00,
2013-01-30 20:35:00,54.9,30.4,30.22,North,359,4.7,6.0,39,0.00,CLR,,0.00,WeatherDisplay:10.37,2013-01-31 02:35:00,
2013-01-30 20:40:00,54.6,31.3,30.22,North,1,3.9,5.2,41,0.00,CLR,,0.00,WeatherDisplay:10.37,2013-01-31 02:40:00,
2013-01-30 20:45:00,54.3,32.8,30.22,North,357,3.9,5.0,44,0.00,CLR,,0.00,WeatherDisplay:10.37,2013-01-31 02:45:00,
2013-01-30 20:50:00,54.0,32.0,30.22,NNW,339,4.1,5.8,43,0.00,CLR,,0.00,WeatherDisplay:10.37,2013-01-31 02:50:00,
2013-01-30 20:55:00,53.9,31.3,30.21,North,349,5.5,6.9,42,0.00,CLR,,0.00,WeatherDisplay:10.37,2013-01-31 02:55:00,
2013-01-30 21:00:00,53.8,31.8,30.22,North,359,5.0,6.9,43,0.00,CLR,,0.00,WeatherDisplay:10.37,2013-01-31 03:00:00,
2013-01-30 21:05:00,53.6,32.2,30.22,NNW,343,4.4,5.8,44,0.00,CLR,,0.00,WeatherDisplay:10.37,2013-01-31 03:05:00,
2013-01-30 21:10:00,53.5,33.2,30.22,NNE,21,3.1,4.7,46,0.00,CLR,,0.00,WeatherDisplay:10.37,2013-01-31 03:10:00,
2013-01-30 21:15:00,53.2,33.5,30.22,North,10,3.7,5.0,47,0.00,CLR,,0.00,WeatherDisplay:10.37,2013-01-31 03:15:00,
2013-01-30 21:20:00,53.2,34.0,30.23,North,7,5.1,6.9,48,0.00,CLR,,0.00,WeatherDisplay:10.37,2013-01-31 03:20:00,
2013-01-30 21:25:00,53.2,33.5,30.22,NE,35,5.7,8.1,47,0.00,CLR,,0.00,WeatherDisplay:10.37,2013-01-31 03:25:00,
2013-01-30 21:30:00,53.2,32.9,30.23,NNE,14,5.2,8.1,46,0.00,CLR,,0.00,WeatherDisplay:10.37,2013-01-31 03:30:00,
2013-01-30 21:35:00,53.1,33.4,30.24,North,359,3.6,5.0,47,0.00,CLR,,0.00,WeatherDisplay:10.37,2013-01-31 03:35:00,
2013-01-30 21:40:00,53.0,34.3,30.23,North,352,5.2,6.9,49,0.00,CLR,,0.00,WeatherDisplay:10.37,2013-01-31 03:40:00,
2013-01-30 21:45:00,52.9,33.2,30.24,North,354,5.4,6.9,47,0.00,CLR,,0.00,WeatherDisplay:10.37,2013-01-31 03:45:00,
2013-01-30 21:50:00,52.8,33.1,30.25,North,1,3.9,4.7,47,0.00,CLR,,0.00,WeatherDisplay:10.37,2013-01-31 03:50:00,
2013-01-30 21:55:00,52.8,33.1,30.25,NNE,21,3.1,7.5,47,0.00,CLR,,0.00,WeatherDisplay:10.37,2013-01-31 03:55:00,
2013-01-30 22:00:00,52.9,34.8,30.24,NNE,20,5.0,8.7,50,0.00,CLR,,0.00,WeatherDisplay:10.37,2013-01-31 04:00:00,
2013-01-30 22:05:00,53.0,33.8,30.25,North,4,5.2,9.2,48,0.00,CLR,,0.00,WeatherDisplay:10.37,2013-01-31 04:05:00,
2013-01-30 22:10:00,53.2,33.5,30.25,NNE,30,4.1,7.1,47,0.00,CLR,,0.00,WeatherDisplay:10.37,2013-01-31 04:10:00,
2013-01-30 22:15:00,53.3,34.1,30.25,NNW,343,5.3,8.1,48,0.00,CLR,,0.00,WeatherDisplay:10.37,2013-01-31 04:15:00,
2013-01-30 22:20:00,53.3,33.0,30.26,NE,44,6.0,8.1,46,0.00,CLR,,0.00,WeatherDisplay:10.37,2013-01-31 04:20:00,
2013-01-30 22:25:00,53.1,32.3,30.26,NNE,13,6.8,9.5,45,0.00,CLR,,0.00,WeatherDisplay:10.37,2013-01-31 04:25:00,
2013-01-30 22:30:00,53.1,32.3,30.26,NNE,20,7.6,10.4,45,0.00,CLR,,0.00,WeatherDisplay:10.37,2013-01-31 04:30:00,
2013-01-30 22:35:00,53.2,32.4,30.26,North,349,6.9,10.4,45,0.00,CLR,,0.00,WeatherDisplay:10.37,2013-01-31 04:35:00,
2013-01-30 22:40:00,53.2,31.3,30.26,North,11,7.8,10.4,43,0.00,CLR,,0.00,WeatherDisplay:10.37,2013-01-31 04:40:00,
2013-01-30 22:45:00,53.1,30.6,30.25,North,7,7.1,10.4,42,0.00,CLR,,0.00,WeatherDisplay:10.37,2013-01-31 04:45:00,
2013-01-30 22:50:00,53.1,31.2,30.25,ENE,59,4.3,10.4,43,0.00,CLR,,0.00,WeatherDisplay:10.37,2013-01-31 04:50:00,
2013-01-30 22:55:00,53.5,32.7,30.26,NNE,28,3.0,7.0,45,0.00,CLR,,0.00,WeatherDisplay:10.37,2013-01-31 04:55:00,
2013-01-30 23:00:00,53.8,33.5,30.25,East,80,5.4,10.4,46,0.00,CLR,,0.00,WeatherDisplay:10.37,2013-01-31 05:00:00,
2013-01-30 23:02:00,53.8,33.5,30.26,NNE,31,4.2,9.2,46,0.00,CLR,,0.00,WeatherDisplay:10.37,2013-01-31 05:02:00,
2013-01-30 23:03:00,53.8,33.5,30.26,NNE,25,4.9,9.2,46,0.00,CLR,,0.00,WeatherDisplay:10.37,2013-01-31 05:03:00,
2013-01-30 23:08:00,53.9,33.6,30.26,ENE,75,3.6,9.2,46,0.00,CLR,,0.00,WeatherDisplay:10.37,2013-01-31 05:08:00,
2013-01-30 23:14:00,53.9,33.0,30.26,NNE,25,8.1,8.1,45,0.00,CLR,,0.00,WeatherDisplay:10.37,2013-01-31 05:14:00,
2013-01-30 23:19:00,53.8,32.9,30.27,North,10,4.2,8.1,45,0.00,CLR,,0.00,WeatherDisplay:10.37,2013-01-31 05:19:00,
2013-01-30 23:24:00,53.8,32.9,30.26,North,352,4.7,8.1,45,0.00,CLR,,0.00,WeatherDisplay:10.37,2013-01-31 05:24:00,
2013-01-30 23:29:00,53.9,32.5,30.26,NE,45,7.3,10.7,44,0.00,CLR,,0.00,WeatherDisplay:10.37,2013-01-31 05:29:00,
2013-01-30 23:34:00,53.7,32.8,30.25,NE,49,7.3,11.5,45,0.00,CLR,,0.00,WeatherDisplay:10.37,2013-01-31 05:34:00,
2013-01-30 23:39:00,53.7,35.0,30.25,North,11,7.0,11.8,49,0.00,CLR,,0.00,WeatherDisplay:10.37,2013-01-31 05:39:00,
2013-01-30 23:44:00,53.7,36.5,30.25,NE,44,6.7,10.5,52,0.00,CLR,,0.00,WeatherDisplay:10.37,2013-01-31 05:44:00,
2013-01-30 23:49:00,53.9,37.1,30.26,North,357,4.8,11.5,53,0.00,CLR,,0.00,WeatherDisplay:10.37,2013-01-31 05:49:00,
2013-01-30 23:54:00,54.3,37.5,30.26,North,360,5.1,9.2,53,0.00,CLR,,0.00,WeatherDisplay:10.37,2013-01-31 05:54:00,
2013-01-30 23:59:00,54.8,38.0,30.26,NNW,337,6.4,9.2,53,0.00,CLR,,0.00,WeatherDisplay:10.37,2013-01-31 05:59:00,